createdAt,value
2018-05-01T00:00:22.475Z,2.10
2018-05-01T00:02:50.054Z,2.40
2018-05-01T00:05:17.609Z,2.10
2018-05-01T00:07:45.180Z,2.70
2018-05-01T00:10:13.462Z,2.37
2018-05-01T00:12:41.020Z,1.63
2018-05-01T00:15:08.643Z,2.27
2018-05-01T00:17:36.946Z,2.07
2018-05-01T00:20:05.235Z,2.30
2018-05-01T00:22:32.811Z,2.17
2018-05-01T00:25:00.411Z,2.33
2018-05-01T00:27:28.710Z,1.77
2018-05-01T00:29:56.293Z,1.97
2018-05-01T00:32:23.823Z,1.53
2018-05-01T00:34:52.191Z,1.93
2018-05-01T00:37:21.436Z,1.60
2018-05-01T00:39:49.305Z,2.20
2018-05-01T00:42:16.872Z,1.90
2018-05-01T00:44:45.659Z,1.70
2018-05-01T00:47:13.189Z,2.33
2018-05-01T00:49:40.753Z,1.80
2018-05-01T00:52:08.373Z,2.10
2018-05-01T00:54:35.966Z,1.53
2018-05-01T00:57:04.742Z,1.90
2018-05-01T00:59:33.084Z,1.90
2018-05-01T01:11:45.655Z,1.83
2018-05-01T01:14:13.212Z,1.80
2018-05-01T01:16:40.747Z,1.83
2018-05-01T01:19:08.926Z,1.63
2018-05-01T01:21:36.566Z,1.77
2018-05-01T01:24:04.140Z,1.40
2018-05-01T01:26:31.678Z,1.50
2018-05-01T01:29:00.181Z,1.80
2018-05-01T01:31:27.705Z,1.60
2018-05-01T01:33:55.313Z,1.43
2018-05-01T01:36:22.703Z,1.40
2018-05-01T01:38:49.763Z,1.50
2018-05-01T01:41:16.834Z,2.20
2018-05-01T01:43:45.477Z,1.43
2018-05-01T01:46:12.562Z,2.27
2018-05-01T01:48:40.399Z,1.27
2018-05-01T01:51:07.478Z,1.23
2018-05-01T01:53:36.105Z,1.57
2018-05-01T01:56:03.173Z,1.70
2018-05-01T01:58:30.229Z,1.43
2018-05-01T02:00:57.435Z,1.60
2018-05-01T02:03:24.536Z,1.00
2018-05-01T02:05:52.378Z,1.40
2018-05-01T02:08:20.446Z,1.30
2018-05-01T02:10:47.531Z,1.30
2018-05-01T02:13:14.567Z,1.33
2018-05-01T02:15:42.537Z,1.40
2018-05-01T02:18:09.602Z,1.73
2018-05-01T02:20:36.678Z,1.60
2018-05-01T02:23:03.759Z,1.63
2018-05-01T02:25:30.897Z,1.10
2018-05-01T02:27:57.970Z,1.50
2018-05-01T02:30:25.278Z,1.40
2018-05-01T02:32:52.350Z,1.43
2018-05-01T02:35:19.449Z,1.50
2018-05-01T02:37:47.391Z,1.07
2018-05-01T02:40:14.435Z,1.50
2018-05-01T02:42:41.577Z,1.33
2018-05-01T02:45:08.757Z,1.73
2018-05-01T02:47:35.825Z,1.30
2018-05-01T02:50:04.147Z,1.30
2018-05-01T02:52:31.180Z,1.33
2018-05-01T02:54:58.259Z,1.80
2018-05-01T02:57:25.328Z,1.87
2018-05-01T02:59:52.501Z,1.40
2018-05-01T03:02:20.332Z,1.10
2018-05-01T03:04:47.415Z,1.53
2018-05-01T03:07:15.252Z,1.13
2018-05-01T03:09:42.302Z,1.20
2018-05-01T03:12:09.461Z,1.20
2018-05-01T03:14:36.579Z,1.50
2018-05-01T03:17:04.853Z,1.17
2018-05-01T03:19:32.830Z,1.40
2018-05-01T03:21:59.940Z,1.57
2018-05-01T03:24:27.394Z,1.50
2018-05-01T03:26:55.230Z,1.40
2018-05-01T03:29:22.273Z,1.30
2018-05-01T03:31:49.369Z,1.10
2018-05-01T03:34:16.450Z,1.87
2018-05-01T03:36:43.516Z,1.60
2018-05-01T03:39:11.374Z,1.40
2018-05-01T03:41:38.470Z,1.57
2018-05-01T03:44:06.272Z,1.60
2018-05-01T03:46:33.317Z,1.30
2018-05-01T03:49:00.742Z,1.40
2018-05-01T03:51:28.602Z,2.00
2018-05-01T03:53:56.415Z,1.70
2018-05-01T03:56:23.768Z,1.90
2018-05-01T03:58:50.842Z,1.90
2018-05-01T04:01:17.915Z,1.50
2018-05-01T04:03:45.521Z,2.00
2018-05-01T04:06:13.797Z,1.97
2018-05-01T04:08:40.878Z,1.90
2018-05-01T04:11:08.004Z,2.00
2018-05-01T04:13:35.065Z,1.80
2018-05-01T04:16:02.177Z,2.00
2018-05-01T04:18:29.392Z,1.70
2018-05-01T04:20:56.493Z,2.23
2018-05-01T04:23:23.624Z,1.50
2018-05-01T04:25:51.175Z,2.10
2018-05-01T04:28:18.326Z,1.83
2018-05-01T04:30:45.365Z,2.07
2018-05-01T04:33:12.562Z,1.83
2018-05-01T04:35:39.638Z,1.90
2018-05-01T04:38:06.724Z,1.80
2018-05-01T04:40:34.866Z,1.90
2018-05-01T04:43:01.949Z,1.73
2018-05-01T04:45:29.019Z,2.10
2018-05-01T04:47:57.173Z,1.90
2018-05-01T04:50:24.213Z,1.90
2018-05-01T04:52:51.253Z,2.20
2018-05-01T04:55:19.261Z,2.20
2018-05-01T04:57:46.327Z,1.90
2018-05-01T05:00:13.372Z,2.20
2018-05-01T05:02:40.436Z,2.43
2018-05-01T05:05:07.514Z,1.80
2018-05-01T05:07:34.584Z,2.33
2018-05-01T05:10:01.974Z,2.07
2018-05-01T05:12:29.057Z,1.70
2018-05-01T05:14:56.095Z,1.93
2018-05-01T05:17:23.179Z,1.30
2018-05-01T05:19:51.637Z,2.17
2018-05-01T05:22:19.490Z,1.93
2018-05-01T05:24:46.524Z,1.93
2018-05-01T05:27:14.148Z,1.90
2018-05-01T05:29:41.212Z,1.77
2018-05-01T05:32:08.281Z,2.03
2018-05-01T05:34:36.356Z,2.07
2018-05-01T05:37:03.446Z,1.77
2018-05-01T05:39:30.529Z,1.60
2018-05-01T05:41:57.750Z,1.90
2018-05-01T05:44:25.612Z,1.63
2018-05-01T05:46:52.684Z,2.00
2018-05-01T05:49:19.968Z,2.00
2018-05-01T05:51:47.063Z,2.00
2018-05-01T05:54:14.967Z,2.00
2018-05-01T05:56:42.063Z,2.03
2018-05-01T05:59:09.138Z,1.50
2018-05-01T06:01:36.207Z,1.83
2018-05-01T06:04:03.297Z,1.63
2018-05-01T06:06:30.382Z,1.83
2018-05-01T06:08:57.433Z,1.90
2018-05-01T06:11:25.491Z,1.77
2018-05-01T06:13:53.418Z,1.50
2018-05-01T06:16:20.518Z,1.80
2018-05-01T06:18:48.350Z,1.43
2018-05-01T06:21:15.673Z,1.60
2018-05-01T06:23:42.715Z,1.47
2018-05-01T06:26:09.819Z,1.57
2018-05-01T06:28:38.049Z,1.70
2018-05-01T06:31:05.256Z,1.90
2018-05-01T06:33:32.301Z,1.73
2018-05-01T06:36:00.990Z,2.50
2018-05-01T06:38:28.032Z,1.63
2018-05-01T06:40:55.104Z,1.97
2018-05-01T06:43:22.877Z,1.67
2018-05-01T06:45:49.928Z,1.80
2018-05-01T06:48:17.010Z,1.77
2018-05-01T06:50:44.212Z,1.80
2018-05-01T06:53:11.203Z,1.53
2018-05-01T06:58:12.650Z,1.40
2018-05-01T07:00:39.751Z,1.63
2018-05-01T07:03:07.209Z,1.57
2018-05-01T07:05:34.311Z,1.80
2018-05-01T07:08:01.352Z,1.87
2018-05-01T07:10:28.439Z,1.60
2018-05-01T07:12:55.479Z,2.00
2018-05-01T07:15:22.667Z,1.70
2018-05-01T07:17:49.857Z,1.67
2018-05-01T07:20:16.921Z,1.53
2018-05-01T07:22:43.958Z,1.77
2018-05-01T07:25:11.185Z,2.00
2018-05-01T07:27:38.269Z,1.30
2018-05-01T07:30:05.368Z,1.63
2018-05-01T07:32:34.111Z,2.10
2018-05-01T07:35:01.206Z,2.00
2018-05-01T07:37:29.034Z,1.90
2018-05-01T07:39:56.328Z,1.63
2018-05-01T07:42:25.383Z,1.40
2018-05-01T07:44:52.461Z,1.77
2018-05-01T07:47:20.680Z,1.77
2018-05-01T07:49:47.780Z,1.80
2018-05-01T07:52:14.841Z,1.77
2018-05-01T07:54:41.926Z,1.40
2018-05-01T07:57:08.993Z,1.77
2018-05-01T07:59:36.115Z,1.87
2018-05-01T08:02:03.144Z,1.83
2018-05-01T08:04:30.971Z,1.70
2018-05-01T08:06:58.087Z,1.70
2018-05-01T08:09:25.915Z,1.73
2018-05-01T08:11:53.000Z,1.53
2018-05-01T08:14:20.082Z,1.80
2018-05-01T08:16:47.213Z,1.80
2018-05-01T08:19:14.276Z,1.60
2018-05-01T08:21:41.317Z,2.10
2018-05-01T08:24:08.422Z,2.00
2018-05-01T08:26:35.513Z,1.60
2018-05-01T08:29:02.601Z,2.17
2018-05-01T08:31:29.662Z,1.50
2018-05-01T08:33:56.733Z,1.90
2018-05-01T08:36:23.802Z,2.00
2018-05-01T08:38:51.375Z,1.60
2018-05-01T08:41:18.427Z,2.00
2018-05-01T08:43:45.525Z,2.00
2018-05-01T08:46:12.557Z,1.80
2018-05-01T08:48:40.385Z,1.73
2018-05-01T08:51:08.614Z,2.07
2018-05-01T08:53:35.733Z,2.03
2018-05-01T08:56:02.794Z,2.17
2018-05-01T08:58:30.916Z,1.73
2018-05-01T09:00:58.008Z,2.07
2018-05-01T09:03:25.055Z,1.77
2018-05-01T09:05:52.406Z,1.70
2018-05-01T09:08:19.590Z,2.07
2018-05-01T09:10:47.391Z,2.03
2018-05-01T09:13:14.555Z,2.47
2018-05-01T09:15:41.661Z,2.10
2018-05-01T09:18:08.956Z,2.07
2018-05-01T09:20:36.978Z,1.80
2018-05-01T09:23:05.228Z,1.87
2018-05-01T09:25:33.342Z,1.97
2018-05-01T09:28:01.186Z,2.50
2018-05-01T09:30:29.024Z,2.70
2018-05-01T09:32:56.109Z,2.30
2018-05-01T09:35:23.262Z,2.73
2018-05-01T09:37:50.395Z,2.40
2018-05-01T09:40:18.225Z,1.93
2018-05-01T09:42:45.297Z,2.10
2018-05-01T09:45:12.618Z,2.23
2018-05-01T09:47:39.695Z,2.10
2018-05-01T09:50:06.808Z,1.60
2018-05-01T09:52:34.343Z,1.97
2018-05-01T09:55:01.910Z,1.80
2018-05-01T09:57:29.600Z,2.30
2018-05-01T09:59:58.216Z,1.80
2018-05-01T10:02:26.018Z,1.63
2018-05-01T10:04:53.898Z,2.27
2018-05-01T10:07:21.433Z,2.57
2018-05-01T10:09:49.839Z,2.30
2018-05-01T10:12:18.128Z,2.40
2018-05-01T10:14:45.680Z,2.20
2018-05-01T10:17:13.251Z,2.30
2018-05-01T10:19:40.779Z,2.33
2018-05-01T10:22:09.036Z,2.37
2018-05-01T10:24:38.318Z,3.60
2018-05-01T10:27:05.850Z,3.13
2018-05-01T10:29:33.487Z,3.40
2018-05-01T10:32:02.202Z,7.10
2018-05-01T10:34:29.777Z,8.03
2018-05-01T10:36:57.353Z,6.90
2018-05-01T10:39:25.768Z,6.70
2018-05-01T10:41:54.111Z,4.80
2018-05-01T10:44:21.645Z,2.20
2018-05-01T10:46:49.242Z,2.00
2018-05-01T10:49:16.859Z,2.30
2018-05-01T10:51:44.416Z,2.30
2018-05-01T10:54:12.386Z,2.20
2018-05-01T10:56:40.040Z,2.23
2018-05-01T10:59:07.595Z,2.50
2018-05-01T11:01:35.161Z,2.30
2018-05-01T11:04:02.698Z,2.07
2018-05-01T11:06:30.322Z,2.90
2018-05-01T11:09:01.219Z,2.73
2018-05-01T11:11:28.897Z,2.50
2018-05-01T11:13:56.559Z,2.90
2018-05-01T11:16:24.162Z,2.70
2018-05-01T11:18:52.254Z,2.30
2018-05-01T11:21:20.656Z,2.33
2018-05-01T11:23:49.752Z,2.70
2018-05-01T11:26:18.269Z,2.80
2018-05-01T11:28:46.472Z,3.20
2018-05-01T11:31:14.975Z,3.30
2018-05-01T11:33:43.294Z,3.70
2018-05-01T11:36:10.870Z,3.40
2018-05-01T11:38:39.176Z,2.93
2018-05-01T11:41:07.722Z,2.60
2018-05-01T11:43:37.088Z,2.60
2018-05-01T11:46:07.904Z,2.30
2018-05-01T11:48:36.178Z,2.57
2018-05-01T11:51:05.435Z,2.47
2018-05-01T11:53:33.169Z,2.27
2018-05-01T11:56:01.927Z,2.50
2018-05-01T11:58:31.221Z,2.43
2018-05-01T12:00:59.347Z,2.87
2018-05-01T12:03:26.918Z,2.33
2018-05-01T12:05:55.434Z,2.50
2018-05-01T12:08:24.879Z,2.10
2018-05-01T12:10:55.526Z,2.40
2018-05-01T12:13:23.089Z,2.20
2018-05-01T12:15:50.661Z,2.40
2018-05-01T12:18:18.199Z,2.20
2018-05-01T12:20:45.990Z,2.40
2018-05-01T12:23:15.532Z,2.20
2018-05-01T12:25:43.071Z,2.53
2018-05-01T12:28:11.581Z,2.40
2018-05-01T12:30:40.141Z,2.53
2018-05-01T12:33:08.314Z,1.87
2018-05-01T12:35:35.879Z,1.83
2018-05-01T12:38:04.221Z,1.93
2018-05-01T12:40:31.773Z,1.80
2018-05-01T12:42:59.412Z,1.90
2018-05-01T12:45:28.980Z,2.30
2018-05-01T12:47:56.561Z,2.27
2018-05-01T12:50:24.868Z,2.37
2018-05-01T12:52:53.614Z,2.30
2018-05-01T12:55:24.010Z,2.47
2018-05-01T12:57:54.843Z,3.30
2018-05-01T13:00:22.365Z,2.30
2018-05-01T13:02:50.556Z,2.50
2018-05-01T13:05:21.026Z,2.40
2018-05-01T13:07:49.633Z,2.70
2018-05-01T13:10:17.972Z,2.17
2018-05-01T13:12:45.598Z,2.40
2018-05-01T13:15:13.137Z,2.53
2018-05-01T13:17:40.702Z,2.67
2018-05-01T13:20:08.411Z,2.90
2018-05-01T13:22:36.708Z,3.07
2018-05-01T13:25:06.128Z,2.70
2018-05-01T13:27:34.316Z,2.17
2018-05-01T13:30:01.956Z,1.90
2018-05-01T13:32:30.597Z,2.97
2018-05-01T13:34:58.258Z,2.63
2018-05-01T13:37:30.525Z,2.67
2018-05-01T13:39:58.702Z,2.80
2018-05-01T13:42:26.439Z,2.03
2018-05-01T13:44:55.234Z,1.77
2018-05-01T13:47:23.688Z,2.40
2018-05-01T13:49:55.230Z,2.33
2018-05-01T13:52:22.851Z,2.77
2018-05-01T13:54:50.457Z,2.20
2018-05-01T13:57:18.000Z,2.03
2018-05-01T13:59:45.571Z,2.50
2018-05-01T14:02:13.111Z,2.77
2018-05-01T14:04:40.663Z,2.17
2018-05-01T14:07:09.195Z,2.50
2018-05-01T14:09:37.513Z,2.70
2018-05-01T14:12:05.102Z,1.77
2018-05-01T14:14:32.637Z,1.70
2018-05-01T14:17:00.419Z,2.20
2018-05-01T14:19:27.972Z,2.03
2018-05-01T14:21:55.535Z,2.47
2018-05-01T14:24:24.498Z,2.27
2018-05-01T14:26:52.061Z,2.67
2018-05-01T14:29:19.666Z,2.60
2018-05-01T14:31:47.273Z,2.20
2018-05-01T14:34:15.637Z,2.30
2018-05-01T14:36:43.934Z,2.10
2018-05-01T14:39:11.495Z,2.27
2018-05-01T14:41:39.127Z,2.53
2018-05-01T14:44:07.964Z,2.10
2018-05-01T14:46:35.512Z,1.93
2018-05-01T14:49:03.056Z,2.10
2018-05-01T14:51:31.371Z,2.63
2018-05-01T14:53:59.124Z,2.70
2018-05-01T14:56:26.687Z,3.00
2018-05-01T14:58:54.226Z,2.70
2018-05-01T15:01:22.113Z,2.70
2018-05-01T15:03:49.598Z,2.57
2018-05-01T15:06:17.189Z,2.00
2018-05-01T15:08:44.729Z,2.50
2018-05-01T15:11:12.788Z,3.03
2018-05-01T15:13:41.160Z,3.30
2018-05-01T15:16:09.286Z,2.77
2018-05-01T15:18:36.863Z,3.33
2018-05-01T15:21:05.000Z,2.60
2018-05-01T15:23:33.360Z,3.10
2018-05-01T15:26:00.914Z,2.90
2018-05-01T15:28:28.432Z,2.47
2018-05-01T15:30:56.050Z,2.70
2018-05-01T15:33:23.620Z,3.00
2018-05-01T15:35:52.237Z,2.60
2018-05-01T15:38:20.075Z,2.50
2018-05-01T15:40:48.405Z,2.87
2018-05-01T15:43:15.974Z,2.63
2018-05-01T15:45:43.519Z,2.70
2018-05-01T15:48:11.877Z,2.60
2018-05-01T15:50:39.484Z,2.33
2018-05-01T15:53:07.086Z,2.93
2018-05-01T15:55:39.083Z,2.60
2018-05-01T15:58:07.151Z,2.93
2018-05-01T16:00:35.138Z,3.17
2018-05-01T16:03:02.931Z,2.63
2018-05-01T16:05:30.623Z,3.20
2018-05-01T16:08:02.184Z,3.23
2018-05-01T16:10:31.464Z,3.13
2018-05-01T16:12:59.846Z,3.03
2018-05-01T16:15:28.424Z,2.93
2018-05-01T16:18:05.276Z,2.70
2018-05-01T16:20:33.836Z,2.73
2018-05-01T16:23:02.072Z,3.00
2018-05-01T16:25:32.600Z,2.87
2018-05-01T16:28:01.336Z,3.00
2018-05-01T16:30:28.874Z,2.10
2018-05-01T16:32:56.433Z,2.20
2018-05-01T16:35:24.039Z,2.60
2018-05-01T16:37:51.705Z,3.07
2018-05-01T16:40:20.077Z,3.10
2018-05-01T16:42:47.624Z,2.50
2018-05-01T16:45:15.218Z,2.80
2018-05-01T16:47:43.799Z,2.93
2018-05-01T16:50:14.687Z,2.90
2018-05-01T16:52:42.315Z,3.57
2018-05-01T16:55:11.705Z,3.40
2018-05-01T16:57:39.260Z,2.87
2018-05-01T17:00:06.978Z,3.00
2018-05-01T17:02:34.535Z,4.17
2018-05-01T17:05:04.460Z,3.30
2018-05-01T17:07:35.009Z,3.83
2018-05-01T17:10:03.691Z,3.80
2018-05-01T17:12:31.940Z,3.37
2018-05-01T17:15:01.451Z,3.20
2018-05-01T17:17:29.971Z,3.73
2018-05-01T17:19:59.301Z,4.00
2018-05-01T17:22:27.631Z,3.83
2018-05-01T17:24:56.633Z,3.10
2018-05-01T17:27:24.262Z,2.57
2018-05-01T17:29:51.824Z,2.63
2018-05-01T17:32:19.423Z,3.00
2018-05-01T17:34:47.148Z,3.90
2018-05-01T17:37:14.802Z,3.83
2018-05-01T17:39:42.578Z,3.87
2018-05-01T17:42:10.796Z,3.63
2018-05-01T17:44:38.413Z,3.53
2018-05-01T17:47:06.046Z,3.57
2018-05-01T17:49:34.437Z,2.93
2018-05-01T17:52:02.005Z,3.50
2018-05-01T17:54:29.641Z,3.53
2018-05-01T17:56:57.980Z,4.00
2018-05-01T17:59:25.580Z,3.50
2018-05-01T18:01:54.288Z,4.33
2018-05-01T18:04:22.061Z,3.77
2018-05-01T18:06:49.595Z,3.97
2018-05-01T18:09:18.200Z,3.10
2018-05-01T18:11:45.838Z,3.20
2018-05-01T18:14:14.772Z,3.70
2018-05-01T18:16:43.570Z,3.83
2018-05-01T18:19:11.338Z,3.20
2018-05-01T18:21:39.090Z,3.33
2018-05-01T18:24:07.388Z,3.60
2018-05-01T18:26:34.982Z,3.83
2018-05-01T18:29:05.047Z,3.00
2018-05-01T18:31:33.112Z,2.60
2018-05-01T18:34:00.658Z,2.73
2018-05-01T18:36:28.852Z,2.90
2018-05-01T18:38:56.900Z,3.70
2018-05-01T18:41:24.642Z,3.00
2018-05-01T18:43:52.209Z,3.23
2018-05-01T18:46:21.012Z,2.90
2018-05-01T18:48:49.385Z,3.20
2018-05-01T18:51:16.982Z,2.87
2018-05-01T18:53:44.575Z,3.80
2018-05-01T18:56:12.333Z,3.30
2018-05-01T18:58:39.919Z,3.10
2018-05-01T19:01:07.463Z,3.27
2018-05-01T19:03:35.053Z,3.37
2018-05-01T19:06:02.655Z,2.90
2018-05-01T19:08:30.233Z,2.77
2018-05-01T19:10:59.370Z,3.30
2018-05-01T19:13:27.903Z,2.70
2018-05-01T19:15:55.630Z,4.33
2018-05-01T19:18:23.836Z,9.07
2018-05-01T19:20:51.401Z,12.47
2018-05-01T19:23:19.240Z,17.30
2018-05-01T19:25:46.866Z,6.83
2018-05-01T19:28:14.436Z,2.70
2018-05-01T19:30:42.779Z,2.53
2018-05-01T19:33:10.342Z,3.30
2018-05-01T19:35:37.901Z,9.73
2018-05-01T19:38:05.473Z,15.30
2018-05-01T19:40:33.219Z,4.60
2018-05-01T19:43:00.843Z,3.90
2018-05-01T19:45:33.446Z,3.03
2018-05-01T19:48:01.107Z,2.40
2018-05-01T19:50:28.729Z,3.27
2018-05-01T19:52:57.040Z,4.23
2018-05-01T19:55:24.578Z,4.53
2018-05-01T19:57:52.157Z,8.63
2018-05-01T20:00:19.723Z,4.60
2018-05-01T20:02:47.346Z,3.80
2018-05-01T20:05:14.944Z,3.70
2018-05-01T20:07:42.544Z,3.07
2018-05-01T20:10:10.867Z,2.83
2018-05-01T20:12:38.447Z,3.43
2018-05-01T20:15:06.125Z,2.73
2018-05-01T20:17:33.667Z,3.10
2018-05-01T20:20:01.392Z,3.33
2018-05-01T20:22:29.733Z,3.30
2018-05-01T20:24:57.318Z,2.80
2018-05-01T20:27:25.724Z,3.03
2018-05-01T20:29:53.343Z,2.77
2018-05-01T20:32:20.987Z,3.07
2018-05-01T20:34:49.446Z,3.30
2018-05-01T20:39:40.166Z,3.03
2018-05-01T20:42:08.469Z,2.30
2018-05-01T20:44:36.015Z,2.53
2018-05-01T20:47:03.582Z,2.60
2018-05-01T20:49:33.149Z,2.40
2018-05-01T20:52:01.061Z,2.03
2018-05-01T20:54:28.787Z,2.73
2018-05-01T20:56:56.360Z,2.50
2018-05-01T20:59:23.958Z,2.63
2018-05-01T21:01:51.601Z,2.90
2018-05-01T21:04:19.897Z,2.63
2018-05-01T21:06:47.593Z,3.17
2018-05-01T21:09:15.951Z,2.30
2018-05-01T21:11:43.773Z,2.03
2018-05-01T21:14:11.337Z,2.00
2018-05-01T21:16:39.864Z,2.00
2018-05-01T21:19:07.587Z,2.40
2018-05-01T21:21:35.549Z,2.50
2018-05-01T21:24:03.184Z,2.27
2018-05-01T21:26:31.545Z,2.60
2018-05-01T21:28:59.129Z,2.30
2018-05-01T21:31:28.256Z,2.40
2018-05-01T21:33:55.860Z,1.93
2018-05-01T21:36:24.198Z,1.97
2018-05-01T21:38:51.754Z,1.60
2018-05-01T21:41:19.411Z,1.97
2018-05-01T21:43:46.969Z,1.90
2018-05-01T21:46:14.539Z,1.33
2018-05-01T21:48:42.288Z,1.60
2018-05-01T21:51:09.885Z,1.50
2018-05-01T21:53:37.441Z,2.10
2018-05-01T21:56:04.993Z,2.47
2018-05-01T21:58:32.528Z,1.73
2018-05-01T22:01:00.202Z,1.80
2018-05-01T22:03:28.582Z,1.83
2018-05-01T22:05:56.449Z,1.80
2018-05-01T22:08:24.007Z,1.70
2018-05-01T22:10:51.579Z,2.00
2018-05-01T22:13:19.130Z,2.17
2018-05-01T22:15:46.850Z,1.90
2018-05-01T22:18:14.986Z,4.40
2018-05-01T22:20:42.517Z,2.57
2018-05-01T22:23:11.080Z,1.80
2018-05-01T22:25:38.634Z,1.40
2018-05-01T22:28:06.181Z,1.87
2018-05-01T22:30:33.746Z,2.17
2018-05-01T22:33:02.111Z,1.37
2018-05-01T22:35:29.665Z,1.50
2018-05-01T22:37:57.239Z,1.83
2018-05-01T22:40:24.804Z,2.07
2018-05-01T22:42:53.351Z,1.63
2018-05-01T22:45:21.090Z,1.90
2018-05-01T22:47:48.679Z,2.33
2018-05-01T22:50:16.985Z,1.50
2018-05-01T22:52:44.540Z,1.67
2018-05-01T22:55:12.085Z,1.37
2018-05-01T22:57:39.631Z,1.70
2018-05-01T23:00:07.278Z,1.50
2018-05-01T23:02:34.854Z,1.90
2018-05-01T23:05:02.459Z,1.87
2018-05-01T23:07:30.299Z,1.70
2018-05-01T23:09:58.021Z,1.50
2018-05-01T23:12:25.574Z,2.47
2018-05-01T23:14:53.147Z,1.80
2018-05-01T23:17:21.348Z,1.97
2018-05-01T23:19:49.048Z,1.90
2018-05-01T23:22:17.410Z,1.77
2018-05-01T23:24:45.015Z,1.80
2018-05-01T23:27:12.724Z,1.83
2018-05-01T23:29:41.063Z,1.80
2018-05-01T23:32:08.579Z,1.80
2018-05-01T23:34:37.858Z,2.10
2018-05-01T23:37:05.549Z,1.57
2018-05-01T23:39:33.841Z,1.37
2018-05-01T23:42:01.410Z,1.90
2018-05-01T23:44:29.123Z,1.63
2018-05-01T23:46:57.854Z,2.13
2018-05-01T23:49:25.439Z,2.00
2018-05-01T23:51:53.019Z,2.30
2018-05-01T23:54:22.072Z,2.60
2018-05-01T23:56:49.604Z,6.40
2018-05-01T23:59:18.102Z,7.17
